Time;durP1;ratioP1;P1;durP2;ratioP2;P2;SDS_P1;SDS_P2;PMS_P1;PMS_P2;Temp;Humidity;BMP_temperature;BMP_pressure;BME280_temperature;BME280_humidity;BME280_pressure;Samples;Min_cycle;Max_cycle;Signal;HPM_P1;HPM_P2
2021/10/19 00:00:49;;;;;;;16.73;13.35;;;;;;;12.15;100.00;101801.34;10585237;28;20044;-62
2021/10/19 00:05:52;;;;;;;15.32;12.40;;;;;;;12.43;100.00;101798.25;10585335;28;20043;-62
2021/10/19 00:10:54;;;;;;;18.77;13.80;;;;;;;12.25;100.00;101798.22;10566984;28;20050;-62
2021/10/19 00:15:58;;;;;;;15.80;13.07;;;;;;;12.38;100.00;101792.38;10585334;28;20118;-62
2021/10/19 00:21:01;;;;;;;16.13;13.65;;;;;;;12.11;100.00;101795.41;10584526;28;20052;-61
2021/10/19 00:26:03;;;;;;;19.52;13.20;;;;;;;12.27;100.00;101811.25;10567005;28;20044;-60
2021/10/19 00:31:05;;;;;;;17.30;14.18;;;;;;;11.98;100.00;101803.00;10584407;28;20406;-60
2021/10/19 00:36:08;;;;;;;19.55;15.43;;;;;;;11.92;100.00;101808.56;10584607;28;20052;-60
2021/10/19 00:41:12;;;;;;;21.55;17.35;;;;;;;11.85;100.00;101810.59;10583888;28;20399;-60
2021/10/19 00:46:14;;;;;;;17.80;15.38;;;;;;;12.03;100.00;101805.41;10583774;28;20054;-60
2021/10/19 00:51:17;;;;;;;20.35;16.42;;;;;;;11.92;100.00;101797.19;10583767;28;20050;-60
2021/10/19 00:56:19;;;;;;;18.55;14.75;;;;;;;12.12;100.00;101794.50;10565701;28;20411;-60
2021/10/19 01:01:21;;;;;;;23.67;19.73;;;;;;;12.01;100.00;101791.53;10565078;28;20480;-60
2021/10/19 01:06:24;;;;;;;21.95;16.17;;;;;;;11.99;100.00;101788.97;10583327;28;20126;-60
2021/10/19 01:11:27;;;;;;;19.15;15.40;;;;;;;11.88;100.00;101783.34;10582643;28;20046;-60
2021/10/19 01:16:29;;;;;;;21.92;15.77;;;;;;;11.99;100.00;101786.34;10583007;28;20048;-60
2021/10/19 01:21:32;;;;;;;27.60;18.25;;;;;;;11.99;100.00;101791.59;10582657;28;20127;-60
2021/10/19 01:26:34;;;;;;;18.25;16.00;;;;;;;11.78;100.00;101772.41;10582893;28;20048;-60
2021/10/19 01:31:36;;;;;;;19.95;15.88;;;;;;;11.96;100.00;101770.72;10582196;28;20043;-60
2021/10/19 01:36:38;;;;;;;23.20;17.77;;;;;;;11.93;100.00;101759.53;10581757;28;20499;-60
2021/10/19 01:41:42;;;;;;;25.98;17.92;;;;;;;12.10;100.00;101742.97;10582015;28;20403;-60
2021/10/19 01:46:45;;;;;;;20.77;15.73;;;;;;;12.06;100.00;101752.78;10581891;28;20498;-60
2021/10/19 01:51:47;;;;;;;19.40;15.18;;;;;;;12.08;100.00;101743.88;10581357;28;20102;-60
2021/10/19 01:56:49;;;;;;;17.60;15.38;;;;;;;12.37;100.00;101732.88;10581739;28;20069;-60
2021/10/19 02:01:51;;;;;;;19.45;14.45;;;;;;;12.42;100.00;101720.38;10581397;28;20522;-60
2021/10/19 02:06:54;;;;;;;18.05;15.70;;;;;;;12.31;100.00;101726.16;10581453;28;20047;-59
2021/10/19 02:11:56;;;;;;;21.58;17.17;;;;;;;12.24;100.00;101724.78;10581577;28;20044;-60
2021/10/19 02:16:59;;;;;;;21.33;17.15;;;;;;;12.16;100.00;101713.81;10581608;28;20048;-60
2021/10/19 02:22:01;;;;;;;21.75;17.40;;;;;;;12.23;100.00;101697.66;10581526;28;20044;-60
2021/10/19 02:27:03;;;;;;;22.73;17.48;;;;;;;12.13;100.00;101695.56;10563311;28;20048;-60
2021/10/19 02:32:06;;;;;;;22.85;18.23;;;;;;;12.16;100.00;101685.78;10580942;28;20054;-59
2021/10/19 02:37:08;;;;;;;23.05;18.65;;;;;;;12.29;100.00;101686.00;10563516;28;20074;-59
2021/10/19 02:42:10;;;;;;;24.23;18.25;;;;;;;12.30;100.00;101686.84;10580693;28;20534;-60
2021/10/19 02:47:13;;;;;;;23.63;17.65;;;;;;;12.31;100.00;101671.03;10581368;28;20044;-60
2021/10/19 02:52:15;;;;;;;21.88;16.95;;;;;;;12.35;100.00;101687.47;10580413;28;20043;-59
2021/10/19 02:57:19;;;;;;;25.00;17.88;;;;;;;12.43;100.00;101669.56;10580149;28;20407;-59
2021/10/19 03:02:21;;;;;;;23.77;17.42;;;;;;;12.48;100.00;101669.31;10563595;28;20050;-60
2021/10/19 03:07:24;;;;;;;18.77;15.98;;;;;;;12.63;100.00;101660.63;10588080;28;20043;-60
2021/10/19 03:12:26;;;;;;;23.73;17.35;;;;;;;12.65;100.00;101653.53;10587656;28;20505;-60
2021/10/19 03:17:28;;;;;;;21.02;16.25;;;;;;;12.90;100.00;101660.13;10587639;28;20390;-59
2021/10/19 03:22:31;;;;;;;19.08;16.83;;;;;;;12.87;100.00;101663.75;10587690;28;20054;-59
2021/10/19 03:27:33;;;;;;;22.25;16.63;;;;;;;12.91;100.00;101657.41;10587627;28;20047;-59
2021/10/19 03:32:35;;;;;;;18.67;15.77;;;;;;;12.96;100.00;101654.50;10586820;28;20052;-60
2021/10/19 03:37:38;;;;;;;18.80;15.98;;;;;;;12.98;100.00;101650.88;10586565;28;20051;-60
2021/10/19 03:42:47;;;;;;;20.30;15.98;;;;;;;13.06;100.00;101647.81;10586305;28;20050;-59
2021/10/19 03:47:50;;;;;;;19.20;16.45;;;;;;;13.10;100.00;101646.75;10586838;28;20044;-59
2021/10/19 03:52:57;;;;;;;26.42;18.48;;;;;;;13.00;100.00;101633.25;10586055;28;20044;-60
2021/10/19 03:57:59;;;;;;;27.15;19.55;;;;;;;13.03;100.00;101632.25;10586631;28;20051;-60
2021/10/19 04:03:01;;;;;;;20.23;18.10;;;;;;;12.99;100.00;101630.69;10585717;28;20510;-60
2021/10/19 04:08:04;;;;;;;24.35;19.70;;;;;;;13.04;100.00;101609.41;10585609;28;20058;-60
2021/10/19 04:13:07;;;;;;;24.60;19.42;;;;;;;13.05;100.00;101632.16;10585084;28;20445;-60
2021/10/19 04:18:09;;;;;;;23.58;17.38;;;;;;;12.99;100.00;101622.81;10585072;28;20039;-60
2021/10/19 04:23:12;;;;;;;21.40;17.85;;;;;;;13.10;100.00;101616.97;10584882;28;20047;-60
2021/10/19 04:28:14;;;;;;;20.58;18.23;;;;;;;13.08;100.00;101635.47;10584783;28;20058;-60
2021/10/19 04:33:16;;;;;;;17.63;15.77;;;;;;;13.16;100.00;101632.41;10584461;28;20058;-60
2021/10/19 04:38:19;;;;;;;28.85;19.25;;;;;;;13.15;100.00;101636.81;10584218;28;20048;-60
2021/10/19 04:43:21;;;;;;;21.73;18.80;;;;;;;13.15;100.00;101633.34;10583894;28;20506;-60
2021/10/19 04:48:24;;;;;;;18.73;15.35;;;;;;;13.32;100.00;101635.91;10583947;28;20376;-60
2021/10/19 04:53:26;;;;;;;28.67;20.85;;;;;;;13.28;100.00;101634.38;10583610;28;20510;-60
2021/10/19 04:58:29;;;;;;;17.58;14.88;;;;;;;13.33;100.00;101642.00;10583469;28;20048;-60
2021/10/19 05:03:32;;;;;;;25.90;19.88;;;;;;;13.29;100.00;101635.22;10565289;28;20055;-60
2021/10/19 05:08:34;;;;;;;23.17;18.50;;;;;;;13.22;100.00;101633.84;10583020;28;20047;-60
2021/10/19 05:13:36;;;;;;;24.30;18.65;;;;;;;13.34;100.00;101633.19;10583299;28;20051;-60
2021/10/19 05:18:39;;;;;;;23.55;20.50;;;;;;;13.21;100.00;101625.09;10582796;28;20055;-60
2021/10/19 05:23:41;;;;;;;27.50;20.40;;;;;;;13.22;100.00;101620.72;10582799;28;20079;-60
2021/10/19 05:28:43;;;;;;;20.13;17.15;;;;;;;13.31;100.00;101622.81;10581525;28;20431;-60
2021/10/19 05:33:46;;;;;;;27.20;22.98;;;;;;;13.32;100.00;101616.66;10582705;28;20410;-60
2021/10/19 05:38:50;;;;;;;37.13;26.65;;;;;;;13.33;100.00;101618.34;10582871;28;20061;-60
2021/10/19 05:43:52;;;;;;;25.42;20.58;;;;;;;13.28;100.00;101602.81;10582691;28;20040;-61
2021/10/19 05:48:56;;;;;;;25.70;21.13;;;;;;;13.24;100.00;101609.16;10582220;28;20044;-60
2021/10/19 05:53:59;;;;;;;22.58;17.30;;;;;;;13.36;100.00;101605.91;10581973;28;20051;-60
2021/10/19 05:59:01;;;;;;;25.25;21.38;;;;;;;13.45;100.00;101588.75;10564256;28;20083;-60
2021/10/19 06:04:04;;;;;;;20.88;18.75;;;;;;;13.42;100.00;101582.81;10581886;28;20067;-60
2021/10/19 06:09:07;;;;;;;18.85;16.95;;;;;;;13.36;100.00;101586.63;10581112;28;20070;-59
2021/10/19 06:14:09;;;;;;;29.00;23.08;;;;;;;13.45;100.00;101594.00;10564170;28;20043;-60
2021/10/19 06:19:12;;;;;;;23.25;19.30;;;;;;;13.31;100.00;101592.09;10581338;28;20051;-60
2021/10/19 06:24:15;;;;;;;25.60;20.42;;;;;;;13.38;100.00;101606.66;10563761;28;20066;-60
2021/10/19 06:29:17;;;;;;;25.23;22.23;;;;;;;13.41;100.00;101595.09;10581248;28;20048;-60
2021/10/19 06:34:20;;;;;;;31.23;23.88;;;;;;;13.59;100.00;101595.84;10581622;28;20046;-60
2021/10/19 06:39:22;;;;;;;23.50;19.27;;;;;;;13.55;100.00;101596.97;10586583;28;20063;-60
2021/10/19 06:44:24;;;;;;;23.23;19.42;;;;;;;13.58;100.00;101580.97;10588844;28;20047;-60
2021/10/19 06:49:47;;;;;;;21.48;19.17;;;;;;;13.61;100.00;101598.38;10588654;28;20491;-60
2021/10/19 06:54:49;;;;;;;34.75;24.40;;;;;;;13.78;100.00;101586.88;10588952;28;20043;-60
2021/10/19 06:59:51;;;;;;;16.33;14.73;;;;;;;13.97;100.00;101600.66;10588344;28;20051;-60
2021/10/19 07:04:53;;;;;;;38.97;25.90;;;;;;;13.76;100.00;101592.22;10588129;28;20044;-60
2021/10/19 07:09:56;;;;;;;21.23;15.80;;;;;;;13.78;100.00;101597.41;10587763;28;20513;-61
2021/10/19 07:14:58;;;;;;;16.13;14.02;;;;;;;14.07;100.00;101607.06;10588016;28;20050;-60
2021/10/19 07:20:01;;;;;;;20.23;17.00;;;;;;;13.96;100.00;101608.66;10587246;28;20479;-60
2021/10/19 07:25:04;;;;;;;41.25;25.92;;;;;;;13.93;100.00;101594.72;10587843;28;20043;-60
2021/10/19 07:30:12;;;;;;;18.80;16.85;;;;;;;14.02;100.00;101606.50;10587521;28;20071;-60
2021/10/19 07:35:16;;;;;;;19.08;16.95;;;;;;;13.94;100.00;101593.78;10568570;28;20477;-60
2021/10/19 07:40:22;;;;;;;30.73;19.70;;;;;;;14.27;100.00;101597.13;10586714;28;20044;-60
2021/10/19 07:45:26;;;;;;;38.58;24.85;;;;;;;14.09;100.00;101586.75;10586507;28;20403;-60
2021/10/19 07:50:30;;;;;;;18.80;16.77;;;;;;;14.30;100.00;101591.69;10585470;28;20054;-60
2021/10/19 07:55:33;;;;;;;20.70;17.80;;;;;;;14.26;100.00;101598.91;10586023;28;20074;-60
2021/10/19 08:00:36;;;;;;;20.77;18.10;;;;;;;14.23;100.00;101600.88;10586001;28;20047;-60
2021/10/19 08:05:41;;;;;;;17.45;15.80;;;;;;;14.44;100.00;101601.38;10586109;28;20093;-60
2021/10/19 08:10:46;;;;;;;20.23;16.73;;;;;;;14.44;100.00;101594.34;10585476;28;20479;-60
2021/10/19 08:15:48;;;;;;;30.88;21.38;;;;;;;14.53;100.00;101587.66;10585361;28;20048;-60
2021/10/19 08:20:50;;;;;;;24.15;19.00;;;;;;;14.67;100.00;101577.09;10584873;28;20536;-60
2021/10/19 08:25:53;;;;;;;18.75;17.00;;;;;;;14.68;100.00;101577.97;10585151;28;20050;-60
2021/10/19 08:30:55;;;;;;;26.60;22.48;;;;;;;14.77;100.00;101587.94;10585095;28;20051;-60
2021/10/19 08:35:58;;;;;;;25.50;21.75;;;;;;;14.64;100.00;101579.97;10584204;28;20487;-60
2021/10/19 08:41:00;;;;;;;21.75;19.05;;;;;;;14.80;100.00;101581.63;10583973;28;20056;-60
2021/10/19 08:46:02;;;;;;;21.40;18.67;;;;;;;15.05;100.00;101586.19;10566091;28;20040;-60
2021/10/19 08:51:09;;;;;;;17.58;15.90;;;;;;;14.97;100.00;101576.13;10566060;28;20087;-61
2021/10/19 08:56:11;;;;;;;17.13;15.32;;;;;;;15.33;100.00;101572.09;10583600;28;20376;-60
2021/10/19 09:01:13;;;;;;;18.80;16.92;;;;;;;15.21;100.00;101572.88;10582416;28;20497;-60
2021/10/19 09:06:17;;;;;;;17.80;16.02;;;;;;;15.37;100.00;101573.56;10583037;28;20495;-60
2021/10/19 09:11:21;;;;;;;14.50;13.32;;;;;;;15.44;100.00;101558.19;10583417;28;20047;-60
2021/10/19 09:16:47;;;;;;;9.77;8.88;;;;;;;15.63;100.00;101570.16;10583266;28;20051;-60
2021/10/19 09:22:01;;;;;;;13.20;12.02;;;;;;;15.45;100.00;101583.63;10564614;28;20043;-60
2021/10/19 09:27:04;;;;;;;16.00;14.60;;;;;;;15.34;100.00;101583.47;10564434;28;20441;-60
2021/10/19 09:32:07;;;;;;;14.27;13.07;;;;;;;15.47;100.00;101584.38;10582466;28;20055;-60
2021/10/19 09:37:16;;;;;;;13.40;12.05;;;;;;;15.53;100.00;101583.97;10582390;28;20491;-61
2021/10/19 09:42:24;;;;;;;12.30;11.23;;;;;;;15.52;100.00;101589.34;10564295;28;20051;-61
2021/10/19 09:47:28;;;;;;;11.88;10.70;;;;;;;15.63;100.00;101580.72;10582003;28;20424;-61
2021/10/19 09:52:34;;;;;;;11.60;10.50;;;;;;;15.55;100.00;101581.22;10564259;28;20048;-61
2021/10/19 09:57:42;;;;;;;7.18;6.63;;;;;;;15.63;100.00;101578.06;10564372;28;20050;-60
2021/10/19 10:02:45;;;;;;;7.60;6.82;;;;;;;15.85;100.00;101588.06;10581997;28;20047;-60
2021/10/19 10:07:49;;;;;;;7.80;7.22;;;;;;;15.64;100.00;101585.91;10581273;28;20507;-60
2021/10/19 10:13:15;;;;;;;5.97;5.03;;;;;;;15.65;100.00;101597.28;10584824;28;20399;-60
2021/10/19 10:18:29;;;;;;;7.88;7.22;;;;;;;15.76;100.00;101595.66;10589992;28;20054;-60
2021/10/19 10:23:31;;;;;;;8.23;7.43;;;;;;;15.89;100.00;101582.50;10574210;28;20047;-60
2021/10/19 10:28:35;;;;;;;7.68;7.07;;;;;;;15.78;100.00;101577.09;10589474;28;20044;-60
2021/10/19 10:33:42;;;;;;;8.27;7.57;;;;;;;15.80;100.00;101593.66;10589824;28;20039;-60
2021/10/19 10:39:00;;;;;;;9.73;7.60;;;;;;;16.07;100.00;101571.63;10588638;28;20043;-60
2021/10/19 10:44:02;;;;;;;12.98;11.27;;;;;;;16.02;100.00;101579.00;10589965;28;20093;-60
2021/10/19 10:49:11;;;;;;;9.40;8.30;;;;;;;16.10;100.00;101577.53;10589009;28;20067;-60
2021/10/19 10:54:15;;;;;;;11.98;10.77;;;;;;;16.21;100.00;101573.34;10588756;28;20044;-60
2021/10/19 10:59:28;;;;;;;21.70;17.45;;;;;;;16.10;100.00;101559.03;10588288;28;20052;-60
2021/10/19 11:04:31;;;;;;;11.93;10.77;;;;;;;16.31;100.00;101558.53;10588328;28;20047;-60
2021/10/19 11:09:33;;;;;;;17.45;15.82;;;;;;;16.05;100.00;101570.88;10588616;28;20043;-60
2021/10/19 11:14:36;;;;;;;15.73;14.18;;;;;;;16.33;100.00;101556.63;10588079;28;20043;-60
2021/10/19 11:19:38;;;;;;;16.05;14.35;;;;;;;16.55;100.00;101555.13;10587282;28;20427;-60
2021/10/19 11:24:41;;;;;;;15.38;13.75;;;;;;;16.45;100.00;101558.41;10586368;28;20430;-60
2021/10/19 11:29:43;;;;;;;16.85;14.57;;;;;;;16.56;100.00;101549.72;10587246;28;20130;-60
2021/10/19 11:34:46;;;;;;;20.25;16.98;;;;;;;16.31;100.00;101545.31;10587335;28;20045;-60
2021/10/19 11:39:49;;;;;;;17.77;15.40;;;;;;;16.52;100.00;101556.16;10586623;28;20059;-60
2021/10/19 11:44:51;;;;;;;16.13;14.32;;;;;;;16.48;100.00;101546.78;10586583;28;20051;-60
2021/10/19 11:49:54;;;;;;;18.10;14.82;;;;;;;16.57;100.00;101532.91;10586292;28;20055;-60
2021/10/19 11:54:57;;;;;;;16.45;14.77;;;;;;;16.70;100.00;101536.34;10568783;28;20055;-60
2021/10/19 12:00:05;;;;;;;19.63;17.52;;;;;;;16.72;100.00;101537.09;10585715;28;20061;-60
2021/10/19 12:05:08;;;;;;;22.00;15.32;;;;;;;16.74;100.00;101534.34;10567872;28;20052;-60
2021/10/19 12:10:11;;;;;;;16.73;14.18;;;;;;;16.64;100.00;101517.44;10585658;28;20051;-60
2021/10/19 12:15:22;;;;;;;18.90;14.32;;;;;;;16.74;100.00;101515.00;10585511;28;20048;-60
2021/10/19 12:20:27;;;;;;;10.15;9.15;;;;;;;16.82;100.00;101513.47;10566980;28;20533;-60
2021/10/19 12:25:41;;;;;;;13.70;12.30;;;;;;;16.76;100.00;101510.44;10585226;28;20052;-60
2021/10/19 12:30:44;;;;;;;22.45;17.85;;;;;;;16.62;100.00;101506.97;10584554;28;20051;-60
2021/10/19 12:35:58;;;;;;;23.50;16.92;;;;;;;16.69;100.00;101508.25;10566098;28;20525;-60
2021/10/19 12:41:06;;;;;;;15.07;12.52;;;;;;;16.73;100.00;101508.88;10584766;28;20044;-60
2021/10/19 12:46:09;;;;;;;14.88;13.35;;;;;;;16.80;100.00;101507.47;10584345;28;20044;-60
2021/10/19 12:51:17;;;;;;;13.35;11.68;;;;;;;16.56;100.00;101506.56;10584524;28;20048;-61
2021/10/19 12:56:23;;;;;;;17.83;13.80;;;;;;;16.75;100.00;101512.25;10583907;28;20043;-64
2021/10/19 13:01:25;;;;;;;17.38;14.15;;;;;;;16.77;100.00;101510.31;10595513;27;20047;-61
2021/10/19 13:06:30;;;;;;;17.67;14.85;;;;;;;16.68;100.00;101505.72;10625969;27;20054;-61
2021/10/19 13:11:32;;;;;;;18.60;13.63;;;;;;;16.87;100.00;101500.78;10625538;27;20062;-61
2021/10/19 13:16:34;;;;;;;14.18;11.95;;;;;;;17.00;100.00;101497.28;10625440;27;20505;-61
2021/10/19 13:21:37;;;;;;;21.50;14.93;;;;;;;16.87;100.00;101487.56;10625233;27;20065;-61
2021/10/19 13:26:41;;;;;;;19.10;14.23;;;;;;;16.82;100.00;101484.38;10613774;27;20050;-61
2021/10/19 13:31:43;;;;;;;28.33;21.52;;;;;;;16.75;100.00;101491.09;10618322;27;20406;-61
2021/10/19 13:36:45;;;;;;;20.65;16.52;;;;;;;16.84;100.00;101487.78;10624967;27;20491;-61
2021/10/19 13:41:49;;;;;;;25.77;22.48;;;;;;;16.86;100.00;101482.38;10624990;27;20050;-61
2021/10/19 13:46:51;;;;;;;26.08;22.52;;;;;;;16.86;100.00;101479.75;10624259;27;20053;-61
2021/10/19 13:51:53;;;;;;;39.47;25.88;;;;;;;16.88;100.00;101481.34;10624500;27;20055;-61
2021/10/19 13:56:56;;;;;;;39.45;28.15;;;;;;;17.07;100.00;101477.34;10624405;28;20046;-61
2021/10/19 14:01:59;;;;;;;29.63;22.73;;;;;;;17.11;100.00;101480.59;10624095;28;20047;-61
2021/10/19 14:07:03;;;;;;;25.88;22.05;;;;;;;16.97;100.00;101471.03;10624588;28;20039;-61
2021/10/19 14:12:08;;;;;;;28.25;23.27;;;;;;;17.05;100.00;101472.16;10624008;28;20055;-61
2021/10/19 14:17:10;;;;;;;21.45;18.98;;;;;;;17.06;100.00;101468.56;10624416;28;20054;-61
2021/10/19 14:22:13;;;;;;;33.00;22.63;;;;;;;17.14;100.00;101467.97;10623721;28;20055;-61
2021/10/19 14:27:15;;;;;;;40.17;27.88;;;;;;;17.08;100.00;101469.28;10623777;28;20046;-61
2021/10/19 14:32:17;;;;;;;35.85;26.75;;;;;;;17.12;100.00;101472.53;10623436;28;20058;-61
2021/10/19 14:37:19;;;;;;;31.45;25.23;;;;;;;17.16;100.00;101454.63;10624396;28;20051;-61
2021/10/19 14:42:24;;;;;;;36.72;25.55;;;;;;;16.97;100.00;101455.16;10623510;28;20043;-60
2021/10/19 14:47:26;;;;;;;30.38;24.55;;;;;;;17.22;100.00;101441.78;10623596;28;20043;-61
2021/10/19 14:52:28;;;;;;;26.50;21.27;;;;;;;17.19;100.00;101442.00;10605014;28;20043;-61
2021/10/19 14:57:33;;;;;;;21.27;18.33;;;;;;;17.21;100.00;101431.31;10624452;27;20043;-61
2021/10/19 15:02:35;;;;;;;21.92;18.40;;;;;;;17.25;100.00;101430.97;10630938;27;20047;-60
2021/10/19 15:07:38;;;;;;;19.75;17.30;;;;;;;17.11;100.00;101425.88;10630763;27;20059;-61
2021/10/19 15:12:40;;;;;;;16.23;14.55;;;;;;;17.06;100.00;101431.53;10630592;27;20055;-61
2021/10/19 15:17:44;;;;;;;18.38;15.55;;;;;;;17.17;100.00;101428.06;10630367;27;20043;-61
2021/10/19 15:22:46;;;;;;;19.10;16.45;;;;;;;17.12;100.00;101422.28;10629854;27;20043;-61
2021/10/19 15:27:49;;;;;;;21.00;16.35;;;;;;;17.05;100.00;101423.69;10629984;27;20043;-60
2021/10/19 15:32:51;;;;;;;25.33;17.40;;;;;;;17.14;100.00;101414.22;10611543;27;20058;-60
2021/10/19 15:37:54;;;;;;;20.15;14.93;;;;;;;17.37;100.00;101401.91;10629703;27;20486;-61
2021/10/19 15:42:56;;;;;;;19.17;16.00;;;;;;;17.21;100.00;101400.41;10611037;27;20055;-60
2021/10/19 15:47:59;;;;;;;22.83;16.23;;;;;;;17.23;100.00;101398.50;10629207;27;20054;-60
2021/10/19 15:53:01;;;;;;;19.05;14.35;;;;;;;17.09;100.00;101390.75;10628789;27;20043;-61
2021/10/19 15:58:03;;;;;;;14.13;12.65;;;;;;;17.02;100.00;101395.66;10628673;27;20051;-61
2021/10/19 16:03:06;;;;;;;17.90;15.20;;;;;;;16.98;100.00;101390.72;10628842;27;20047;-60
2021/10/19 16:08:09;;;;;;;24.10;19.67;;;;;;;16.89;100.00;101390.47;10628371;27;20047;-60
2021/10/19 16:13:11;;;;;;;27.60;20.15;;;;;;;16.56;100.00;101364.69;10609096;27;20491;-60
2021/10/19 16:18:14;;;;;;;41.78;20.75;;;;;;;16.62;100.00;101366.03;10627951;27;20051;-60
2021/10/19 16:23:17;;;;;;;55.80;26.60;;;;;;;16.42;100.00;101360.41;10609554;27;20058;-61
2021/10/19 16:28:19;;;;;;;35.90;21.00;;;;;;;16.38;100.00;101358.94;10628078;27;20103;-60
2021/10/19 16:33:22;;;;;;;19.90;15.77;;;;;;;16.34;100.00;101360.16;10627137;27;20046;-60
2021/10/19 16:38:25;;;;;;;24.10;18.00;;;;;;;16.44;100.00;101366.44;10627346;27;20134;-60
2021/10/19 16:43:27;;;;;;;25.17;17.67;;;;;;;16.39;100.00;101376.50;10608986;27;20054;-60
2021/10/19 16:48:30;;;;;;;31.10;20.33;;;;;;;16.16;100.00;101379.00;10626475;27;20043;-60
2021/10/19 16:53:32;;;;;;;31.23;21.40;;;;;;;16.30;100.00;101383.28;10626511;27;20051;-60
2021/10/19 16:58:35;;;;;;;22.77;18.90;;;;;;;16.37;100.00;101380.19;10626152;27;20047;-60
2021/10/19 17:03:37;;;;;;;24.38;18.83;;;;;;;16.29;100.00;101376.31;10625922;27;20051;-61
2021/10/19 17:08:40;;;;;;;17.98;16.15;;;;;;;16.40;100.00;101367.59;10625810;27;20047;-60
2021/10/19 17:13:42;;;;;;;20.42;18.23;;;;;;;16.22;100.00;101359.22;10625510;27;20390;-60
2021/10/19 17:18:44;;;;;;;23.50;17.42;;;;;;;16.23;100.00;101358.25;10625381;27;20402;-60
2021/10/19 17:23:47;;;;;;;18.58;14.75;;;;;;;16.07;100.00;101363.81;10589221;27;20120;-60
2021/10/19 17:28:49;;;;;;;29.23;18.30;;;;;;;16.11;100.00;101364.44;10625424;27;20047;-61
2021/10/19 17:33:51;;;;;;;40.08;22.83;;;;;;;15.88;100.00;101347.59;10624913;27;20415;-61
2021/10/19 17:38:54;;;;;;;51.90;26.38;;;;;;;15.92;100.00;101362.25;10624677;27;20058;-61
2021/10/19 17:43:56;;;;;;;20.88;15.32;;;;;;;15.93;100.00;101366.59;10606710;27;20050;-60
2021/10/19 17:48:59;;;;;;;40.15;23.83;;;;;;;15.78;100.00;101352.66;10624613;27;20490;-61
2021/10/19 17:54:02;;;;;;;26.90;17.48;;;;;;;15.79;100.00;101314.78;10624858;27;20047;-61
2021/10/19 17:59:05;;;;;;;25.98;18.67;;;;;;;15.66;100.00;101317.38;10624392;28;20058;-60
2021/10/19 18:04:07;;;;;;;45.25;25.73;;;;;;;15.58;100.00;101312.69;10624061;28;20499;-60
2021/10/19 18:09:10;;;;;;;31.30;20.67;;;;;;;15.56;100.00;101314.56;10624087;28;20485;-60
2021/10/19 18:14:12;;;;;;;44.17;24.20;;;;;;;15.57;100.00;101300.41;10624492;28;20050;-61
2021/10/19 18:19:17;;;;;;;42.65;24.30;;;;;;;15.38;100.00;101303.50;10623976;28;20109;-60
2021/10/19 18:24:19;;;;;;;21.83;17.75;;;;;;;15.60;100.00;101299.34;10605871;28;20401;-60
2021/10/19 18:29:22;;;;;;;26.60;17.58;;;;;;;15.56;100.00;101295.25;10624171;28;20047;-61
2021/10/19 18:34:27;;;;;;;29.00;19.50;;;;;;;15.47;100.00;101299.38;10628123;27;20047;-60
2021/10/19 18:39:30;;;;;;;43.40;24.50;;;;;;;15.32;100.00;101289.91;10632119;27;20059;-61
2021/10/19 18:44:32;;;;;;;32.60;21.00;;;;;;;15.45;100.00;101296.00;10631836;27;20050;-60
2021/10/19 18:49:34;;;;;;;24.50;18.60;;;;;;;15.43;100.00;101295.25;10631638;27;20073;-60
2021/10/19 18:54:37;;;;;;;21.95;17.33;;;;;;;15.42;100.00;101277.75;10631578;27;20079;-60
2021/10/19 18:59:39;;;;;;;26.35;17.35;;;;;;;15.29;100.00;101290.09;10631027;27;20047;-60
2021/10/19 19:04:42;;;;;;;20.85;15.05;;;;;;;15.41;100.00;101278.69;10631540;27;20046;-60
2021/10/19 19:09:44;;;;;;;27.02;19.60;;;;;;;15.15;100.00;101278.72;10612395;27;20050;-60
2021/10/19 19:14:47;;;;;;;25.75;18.45;;;;;;;15.20;100.00;101273.97;10630452;27;20055;-60
2021/10/19 19:19:49;;;;;;;32.17;20.60;;;;;;;14.99;100.00;101265.72;10629977;27;20050;-60
2021/10/19 19:24:51;;;;;;;24.77;18.33;;;;;;;15.17;100.00;101263.63;10629759;27;20050;-60
2021/10/19 19:29:54;;;;;;;30.67;20.05;;;;;;;15.08;100.00;101259.00;10630026;27;20419;-60
2021/10/19 19:34:56;;;;;;;22.40;17.67;;;;;;;15.04;100.00;101262.78;10629814;27;20050;-58
2021/10/19 19:39:58;;;;;;;36.40;21.73;;;;;;;14.95;100.00;101266.06;10629273;27;20047;-58
2021/10/19 19:45:01;;;;;;;30.95;17.23;;;;;;;15.20;100.00;101257.31;10628551;27;20043;-61
2021/10/19 19:50:04;;;;;;;18.10;14.55;;;;;;;15.15;100.00;101259.44;10611402;27;20053;-60
2021/10/19 19:55:08;;;;;;;24.45;17.60;;;;;;;14.99;100.00;101257.81;10628865;27;20396;-60
2021/10/19 20:00:13;;;;;;;23.63;18.25;;;;;;;15.00;100.00;101248.97;10628668;27;20126;-60
2021/10/19 20:05:17;;;;;;;26.83;19.70;;;;;;;14.98;100.00;101255.31;10628776;27;20051;-60
2021/10/19 20:10:20;;;;;;;22.70;16.50;;;;;;;15.28;100.00;101240.94;10628146;27;20054;-60
2021/10/19 20:15:24;;;;;;;28.27;17.67;;;;;;;15.23;100.00;101236.84;10627364;27;20039;-60
2021/10/19 20:20:29;;;;;;;19.92;17.48;;;;;;;15.15;100.00;101219.88;10627532;27;20414;-59
2021/10/19 20:25:32;;;;;;;25.90;16.70;;;;;;;15.15;100.00;101228.59;10627594;27;20418;-60
2021/10/19 20:30:36;;;;;;;29.25;18.48;;;;;;;14.99;100.00;101226.19;10627547;27;20051;-60
2021/10/19 20:35:40;;;;;;;21.10;16.92;;;;;;;14.97;100.00;101225.44;10627604;27;20046;-60
2021/10/19 20:40:43;;;;;;;22.02;16.33;;;;;;;14.95;100.00;101214.16;10627180;27;20380;-60
2021/10/19 20:45:45;;;;;;;19.45;14.90;;;;;;;15.05;100.00;101217.03;10626919;27;20047;-60
2021/10/19 20:50:48;;;;;;;27.75;17.20;;;;;;;14.87;100.00;101205.94;10626897;27;20055;-61
2021/10/19 20:55:50;;;;;;;24.35;15.90;;;;;;;14.79;100.00;101195.94;10626320;27;20043;-60
2021/10/19 21:00:53;;;;;;;20.23;15.25;;;;;;;14.84;100.00;101193.84;10626688;27;20043;-60
2021/10/19 21:05:55;;;;;;;18.33;15.07;;;;;;;14.84;100.00;101196.47;10626072;27;20474;-60
2021/10/19 21:10:58;;;;;;;19.50;12.10;;;;;;;15.10;100.00;101198.25;10607436;27;20054;-60
2021/10/19 21:16:01;;;;;;;14.98;12.63;;;;;;;14.84;100.00;101200.88;10607781;27;20045;-60
2021/10/19 21:21:08;;;;;;;18.48;12.43;;;;;;;14.80;100.00;101199.41;10625517;27;20051;-60
2021/10/19 21:26:11;;;;;;;16.75;11.38;;;;;;;14.80;100.00;101186.25;10625801;27;20053;-60
2021/10/19 21:31:13;;;;;;;17.40;12.80;;;;;;;14.60;100.00;101182.34;10625019;27;20487;-59
2021/10/19 21:36:15;;;;;;;16.83;11.57;;;;;;;14.82;100.00;101174.63;10606503;27;20583;-60
2021/10/19 21:41:18;;;;;;;19.27;14.23;;;;;;;14.40;100.00;101181.00;10624779;27;20047;-60
2021/10/19 21:46:20;;;;;;;16.67;11.82;;;;;;;14.51;100.00;101170.59;10624804;27;20043;-61
2021/10/19 21:51:23;;;;;;;11.20;8.98;;;;;;;14.72;100.00;101151.66;10624515;27;20068;-60
2021/10/19 21:56:25;;;;;;;11.98;8.88;;;;;;;14.96;100.00;101151.72;10624608;27;20047;-60
2021/10/19 22:01:29;;;;;;;10.18;8.25;;;;;;;14.56;100.00;101133.38;10623997;28;20047;-60
2021/10/19 22:06:32;;;;;;;15.07;9.95;;;;;;;14.48;100.00;101133.94;10624569;27;20039;-59
2021/10/19 22:11:34;;;;;;;10.30;9.30;;;;;;;14.53;100.00;101136.25;10632703;27;20058;-60
2021/10/19 22:16:38;;;;;;;14.52;9.38;;;;;;;14.31;100.00;101121.91;10633297;27;20043;-60
2021/10/19 22:21:40;;;;;;;10.30;8.15;;;;;;;14.60;100.00;101117.28;10632315;27;20043;-60
2021/10/19 22:26:42;;;;;;;12.45;8.77;;;;;;;14.34;100.00;101113.81;10632661;27;20039;-60